Time;durP1;ratioP1;P1;durP2;ratioP2;P2;SDS_P1;SDS_P2;PMS_P1;PMS_P2;Temp;Humidity;BMP_temperature;BMP_pressure;BME280_temperature;BME280_humidity;BME280_pressure;Samples;Min_cycle;Max_cycle;Signal;HPM_P1;HPM_P2
2023/09/17 08:41:49;;;;;;;;;4.25;1.00;;;;;23.79;53.84;100626.03;5925540;23;46536;-35
2023/09/17 08:44:17;;;;;;;;;5.00;5.00;;;;;23.81;54.05;100628.56;4960215;28;45380;-38
2023/09/17 08:46:43;;;;;;;;;5.00;5.00;;;;;23.83;54.41;100639.88;4960207;28;45777;-38
2023/09/17 08:49:08;;;;;;;;;4.75;4.75;;;;;23.84;54.08;100638.91;4960273;28;45270;-35
2023/09/17 08:51:37;;;;;;;;;7.25;5.00;;;;;23.86;53.66;100631.72;4960096;28;54573;-39
2023/09/17 08:54:10;;;;;;;;;6.00;5.00;;;;;23.86;54.33;100632.56;4960233;28;47008;-38
2023/09/17 08:56:40;;;;;;;;;8.00;5.00;;;;;23.86;54.01;100626.44;4960625;28;45856;-45
2023/09/17 08:59:22;;;;;;;;;4.25;4.00;;;;;23.86;54.47;100632.56;4960498;28;45374;-37
2023/09/17 09:01:48;;;;;;;;;4.00;4.00;;;;;23.87;54.28;100641.31;4960426;28;45324;-36
2023/09/17 09:04:15;;;;;;;;;3.50;3.25;;;;;23.89;54.51;100634.97;4959959;28;45385;-36
2023/09/17 09:06:42;;;;;;;;;5.25;5.25;;;;;23.91;54.29;100630.44;4960153;28;45402;-36
2023/09/17 09:09:08;;;;;;;;;7.75;5.25;;;;;23.93;53.89;100632.94;4960129;28;45453;-37
2023/09/17 09:11:37;;;;;;;;;5.50;5.50;;;;;23.94;54.40;100626.69;4958975;28;45441;-35
2023/09/17 09:14:04;;;;;;;;;5.25;5.25;;;;;23.97;53.94;100634.47;4960115;28;45392;-35
2023/09/17 09:16:32;;;;;;;;;6.50;5.25;;;;;23.97;54.26;100623.88;4958456;28;45535;-37
2023/09/17 09:18:59;;;;;;;;;5.75;4.25;;;;;23.98;53.83;100614.94;4973810;28;45361;-36
2023/09/17 09:21:24;;;;;;;;;3.25;3.25;;;;;24.02;53.71;100612.94;4959506;28;45277;-36
2023/09/17 09:23:50;;;;;;;;;5.75;5.00;;;;;24.04;54.12;100614.50;4958918;28;46239;-37
2023/09/17 09:26:16;;;;;;;;;4.75;3.25;;;;;24.07;54.31;100619.59;4959178;28;45371;-37
2023/09/17 09:28:41;;;;;;;;;5.50;5.50;;;;;24.09;53.91;100622.94;4958951;28;45382;-36
2023/09/17 09:31:06;;;;;;;;;6.00;5.00;;;;;24.11;54.21;100624.63;4959792;28;45160;-36
2023/09/17 09:33:33;;;;;;;;;4.00;4.00;;;;;24.13;53.54;100623.59;4959043;28;45298;-36
2023/09/17 09:36:00;;;;;;;;;4.00;4.00;;;;;24.15;53.76;100621.63;4958769;28;45685;-37
2023/09/17 09:38:25;;;;;;;;;5.50;5.25;;;;;24.17;54.19;100614.44;4958444;28;45346;-37
2023/09/17 09:40:51;;;;;;;;;7.50;5.50;;;;;24.17;54.01;100614.44;4958876;28;45337;-37
2023/09/17 09:43:36;;;;;;;;;6.00;4.75;;;;;24.20;54.19;100608.06;4958690;28;47230;-37
2023/09/17 09:46:04;;;;;;;;;6.00;4.00;;;;;24.21;54.08;100605.31;4958699;28;45946;-35
2023/09/17 09:48:39;;;;;;;;;4.00;4.00;;;;;24.22;54.15;100600.84;4959096;28;45338;-37
2023/09/17 09:51:06;;;;;;;;;8.00;5.00;;;;;24.24;53.92;100605.09;4959548;28;45243;-36
2023/09/17 09:53:32;;;;;;;;;5.00;5.00;;;;;24.25;54.06;100600.63;4958699;28;46192;-36
2023/09/17 09:55:57;;;;;;;;;5.50;4.00;;;;;24.27;53.45;100596.06;4958530;28;45264;-35
2023/09/17 09:58:23;;;;;;;;;5.25;4.25;;;;;24.30;53.86;100590.53;4958717;28;45227;-35
2023/09/17 10:00:49;;;;;;;;;4.25;4.00;;;;;24.33;53.91;100579.69;4958863;28;45378;-36
2023/09/17 10:03:17;;;;;;;;;6.25;6.25;;;;;24.36;53.66;100573.34;4958555;28;45575;-37
2023/09/17 10:05:44;;;;;;;;;5.50;5.00;;;;;24.38;53.70;100559.00;4958260;28;45405;-35
2023/09/17 10:08:12;;;;;;;;;7.75;6.00;;;;;24.41;53.57;100554.44;4958726;28;45315;-37
2023/09/17 10:10:38;;;;;;;;;5.00;5.00;;;;;24.42;53.29;100554.31;4958857;28;45532;-37
2023/09/17 10:13:06;;;;;;;;;5.25;4.75;;;;;24.44;53.73;100554.19;4958428;28;46934;-37
2023/09/17 10:15:34;;;;;;;;;6.00;6.00;;;;;24.47;53.26;100559.25;4958369;28;45788;-39
2023/09/17 10:18:01;;;;;;;;;6.25;6.25;;;;;24.49;53.20;100560.81;4958315;28;45323;-38
2023/09/17 10:20:28;;;;;;;;;7.25;5.50;;;;;24.50;53.52;100556.38;4958677;28;45454;-38
2023/09/17 10:22:55;;;;;;;;;8.50;5.25;;;;;24.51;53.40;100556.25;4957922;28;47207;-39
2023/09/17 10:25:22;;;;;;;;;10.00;7.00;;;;;24.54;52.92;100550.72;4958287;28;45302;-36
2023/09/17 10:27:49;;;;;;;;;6.00;6.00;;;;;24.55;53.46;100533.88;4958124;28;45414;-36
2023/09/17 10:30:17;;;;;;;;;8.50;5.75;;;;;24.57;52.67;100533.75;4958452;28;45508;-36
2023/09/17 10:32:44;;;;;;;;;5.75;5.25;;;;;24.61;53.26;100529.03;4957885;28;46283;-36
2023/09/17 10:35:10;;;;;;;;;7.00;5.50;;;;;24.62;53.37;100525.44;4958436;28;45732;-36
2023/09/17 10:37:38;;;;;;;;;6.25;4.25;;;;;24.63;52.94;100528.00;4958218;28;45522;-35
2023/09/17 10:40:10;;;;;;;;;6.75;6.00;;;;;24.66;52.82;100527.72;4958477;28;45295;-38
2023/09/17 10:42:39;;;;;;;;;5.50;4.00;;;;;24.68;53.13;100532.94;4972515;28;46096;-39
2023/09/17 10:45:10;;;;;;;;;4.75;4.50;;;;;24.69;52.87;100534.66;4957955;28;45810;-39
2023/09/17 10:47:38;;;;;;;;;7.50;5.75;;;;;24.69;52.99;100519.56;4958321;28;45856;-38
2023/09/17 10:50:04;;;;;;;;;5.75;5.75;;;;;24.73;52.81;100519.34;4957612;28;45547;-41
2023/09/17 10:52:30;;;;;;;;;7.00;6.25;;;;;24.74;52.86;100516.56;4957321;28;46031;-39
2023/09/17 10:54:56;;;;;;;;;7.25;4.75;;;;;24.75;53.16;100520.06;4957547;28;45746;-41
2023/09/17 10:57:35;;;;;;;;;6.00;6.00;;;;;24.76;53.22;100509.34;4957938;28;45375;-40
2023/09/17 11:00:04;;;;;;;;;8.00;7.25;;;;;24.77;53.03;100515.47;4958245;28;45835;-39
2023/09/17 11:02:32;;;;;;;;;9.25;7.00;;;;;24.79;52.70;100521.50;4940198;28;46473;-40
2023/09/17 11:05:00;;;;;;;;;6.75;6.25;;;;;24.79;52.95;100514.41;4957517;28;45419;-39
2023/09/17 11:07:27;;;;;;;;;9.00;8.00;;;;;24.80;53.05;100521.41;4957956;28;45480;-43
2023/09/17 11:09:52;;;;;;;;;8.75;5.50;;;;;24.82;53.13;100523.91;4957677;28;45377;-38
2023/09/17 11:12:22;;;;;;;;;5.50;5.00;;;;;24.83;52.59;100530.91;4957579;28;45991;-36
2023/09/17 11:14:48;;;;;;;;;5.25;5.00;;;;;24.85;52.91;100523.69;4957231;28;45326;-35
2023/09/17 11:17:30;;;;;;;;;10.00;6.25;;;;;24.85;53.03;100524.50;4957655;28;45367;-36
2023/09/17 11:19:55;;;;;;;;;8.00;7.25;;;;;24.85;52.98;100523.69;4957507;28;46009;-36
2023/09/17 11:22:20;;;;;;;;;5.25;5.25;;;;;24.86;52.91;100522.69;4956799;28;63121;-35
2023/09/17 11:24:47;;;;;;;;;8.00;5.50;;;;;24.86;52.89;100522.69;4957157;28;45389;-37
2023/09/17 11:27:18;;;;;;;;;5.75;5.75;;;;;24.90;52.68;100532.09;4957685;28;45326;-40
2023/09/17 11:29:45;;;;;;;;;6.75;6.50;;;;;24.90;52.80;100532.09;4957338;28;45321;-42
2023/09/17 11:32:13;;;;;;;;;8.00;6.50;;;;;24.91;52.69;100539.09;4957492;28;46440;-41
2023/09/17 11:34:41;;;;;;;;;6.00;6.00;;;;;24.93;52.66;100553.06;4957235;28;45684;-37
2023/09/17 11:37:06;;;;;;;;;7.75;7.50;;;;;24.95;52.95;100555.59;4957475;28;45363;-36
2023/09/17 11:39:33;;;;;;;;;8.75;7.75;;;;;24.96;52.56;100563.44;4957401;28;45472;-38
2023/09/17 11:42:05;;;;;;;;;6.25;5.25;;;;;24.98;52.58;100558.00;4956579;28;47253;-36
2023/09/17 11:44:33;;;;;;;;;6.25;5.75;;;;;24.97;52.74;100548.38;4956998;28;45615;-38
2023/09/17 11:46:59;;;;;;;;;8.25;7.25;;;;;24.99;52.69;100552.56;4957056;28;45462;-37
2023/09/17 11:49:25;;;;;;;;;6.75;5.50;;;;;24.99;52.49;100557.88;4957310;28;45394;-36
2023/09/17 11:51:51;;;;;;;;;7.50;6.50;;;;;25.00;52.48;100559.56;4956667;28;46395;-36
2023/09/17 11:54:19;;;;;;;;;7.25;6.25;;;;;25.02;52.60;100559.47;4957007;28;45663;-37
2023/09/17 11:56:47;;;;;;;;;7.25;7.25;;;;;25.03;52.75;100557.66;4956661;28;45480;-42
2023/09/17 11:59:15;;;;;;;;;6.00;5.50;;;;;25.04;52.55;100556.69;4939832;28;45505;-36
2023/09/17 12:01:52;;;;;;;;;7.25;5.75;;;;;25.04;52.91;100552.22;4956504;28;46722;-39
2023/09/17 12:04:20;;;;;;;;;8.00;7.00;;;;;25.06;52.77;100547.63;4956886;28;45349;-43
2023/09/17 12:06:50;;;;;;;;;6.00;6.00;;;;;25.06;53.35;100544.97;4956788;28;45227;-39
2023/09/17 12:11:56;;;;;;;;;9.00;7.75;;;;;25.09;52.87;100533.28;4956255;28;45220;-40
2023/09/17 12:14:22;;;;;;;;;8.00;8.00;;;;;25.10;52.79;100527.00;4956579;28;45362;-42
2023/09/17 12:16:49;;;;;;;;;7.00;7.00;;;;;25.13;53.30;100529.44;4956449;28;45330;-35
2023/09/17 12:19:14;;;;;;;;;8.00;7.25;;;;;25.14;52.81;100528.47;4939359;28;45469;-37
2023/09/17 12:21:41;;;;;;;;;7.25;6.50;;;;;25.17;53.01;100520.28;4956471;28;46065;-36
2023/09/17 12:24:17;;;;;;;;;8.50;6.00;;;;;25.17;53.23;100518.44;4956394;28;45333;-36
2023/09/17 12:29:36;;;;;;;;;6.25;6.25;;;;;25.18;52.75;100503.41;4956772;28;45364;-39
2023/09/17 12:32:03;;;;;;;;;6.00;6.00;;;;;25.19;52.53;100510.34;4956350;28;45415;-36
2023/09/17 12:34:29;;;;;;;;;8.25;6.50;;;;;25.20;52.63;100501.44;4956349;28;45495;-38
2023/09/17 12:36:54;;;;;;;;;8.50;6.25;;;;;25.21;53.01;100492.50;4956267;28;45408;-37
2023/09/17 12:39:20;;;;;;;;;5.25;5.25;;;;;25.22;52.58;100499.50;4956623;28;45280;-37
2023/09/17 12:41:45;;;;;;;;;7.50;6.25;;;;;25.23;52.47;100487.09;4955835;28;46169;-41
2023/09/17 12:44:12;;;;;;;;;8.00;7.25;;;;;25.23;52.46;100484.47;4956648;28;45551;-38
2023/09/17 12:46:38;;;;;;;;;7.75;7.00;;;;;25.24;52.42;100480.84;4956135;28;45527;-37
2023/09/17 12:49:04;;;;;;;;;6.50;6.00;;;;;25.25;53.02;100477.19;4939203;28;45338;-38
2023/09/17 12:51:30;;;;;;;;;6.75;4.00;;;;;25.26;52.90;100487.69;4956198;28;47234;-38
2023/09/17 12:53:56;;;;;;;;;7.50;6.00;;;;;25.26;52.59;100487.69;4938687;28;45677;-40
2023/09/17 12:56:21;;;;;;;;;8.00;7.00;;;;;25.28;52.69;100484.91;4956469;28;45469;-38
2023/09/17 12:58:50;;;;;;;;;6.25;5.00;;;;;25.29;52.51;100481.28;4938643;28;45592;-39
2023/09/17 13:01:16;;;;;;;;;7.00;5.25;;;;;25.30;52.56;100485.63;4955997;28;46265;-37
2023/09/17 13:03:58;;;;;;;;;5.50;3.75;;;;;25.30;52.44;100481.16;4956139;28;45376;-36
2023/09/17 13:06:27;;;;;;;;;6.00;6.00;;;;;25.32;52.65;100473.09;4956282;28;45259;-39
2023/09/17 13:08:53;;;;;;;;;7.75;7.00;;;;;25.32;52.80;100468.63;4938760;28;45496;-38
2023/09/17 13:11:19;;;;;;;;;5.50;5.50;;;;;25.32;52.52;100468.63;4955943;28;47007;-36
2023/09/17 13:13:50;;;;;;;;;7.00;6.00;;;;;25.35;52.45;100472.00;4956692;28;45311;-37
2023/09/17 13:16:17;;;;;;;;;7.00;5.00;;;;;25.36;52.96;100465.72;4959978;28;45342;-36
2023/09/17 13:18:44;;;;;;;;;8.00;5.75;;;;;25.37;52.29;100464.75;4959401;28;45425;-37
2023/09/17 13:21:10;;;;;;;;;5.75;5.75;;;;;25.37;52.63;100457.63;4959013;28;46119;-37
2023/09/17 13:23:39;;;;;;;;;8.00;6.00;;;;;25.38;52.61;100453.19;4959067;28;45266;-38
2023/09/17 13:26:08;;;;;;;;;5.50;4.25;;;;;25.39;52.26;100449.56;4959289;28;45362;-37
2023/09/17 13:28:34;;;;;;;;;6.50;6.50;;;;;25.38;52.38;100451.34;4959286;28;45487;-39
2023/09/17 13:31:04;;;;;;;;;9.00;6.75;;;;;25.40;52.31;100448.59;4958781;28;45427;-36
2023/09/17 13:33:38;;;;;;;;;7.00;5.00;;;;;25.40;52.39;100451.25;4958918;28;45326;-35
2023/09/17 13:36:07;;;;;;;;;6.00;6.00;;;;;25.40;52.24;100449.44;4959194;28;45200;-37
2023/09/17 13:38:33;;;;;;;;;5.00;5.00;;;;;25.40;52.48;100445.94;4959209;28;45483;-36
2023/09/17 13:40:59;;;;;;;;;5.00;5.00;;;;;25.40;52.63;100449.44;4958725;28;45407;-40
2023/09/17 13:43:26;;;;;;;;;6.00;6.00;;;;;25.42;52.71;100446.66;4973684;28;45378;-36
2023/09/17 13:45:59;;;;;;;;;7.75;6.00;;;;;25.43;52.47;100440.38;4958770;28;45467;-37
2023/09/17 13:48:25;;;;;;;;;6.00;6.00;;;;;25.43;52.97;100427.97;4959069;28;45421;-36
2023/09/17 13:50:51;;;;;;;;;6.50;5.75;;;;;25.44;53.10;100426.16;4958591;28;46456;-37
2023/09/17 13:53:18;;;;;;;;;6.25;6.25;;;;;25.45;52.59;100420.75;4958791;28;45441;-37
2023/09/17 13:55:44;;;;;;;;;5.50;5.00;;;;;25.46;52.57;100422.44;4957533;28;45308;-37
2023/09/17 13:58:11;;;;;;;;;5.00;5.00;;;;;25.47;53.02;100417.94;4958872;28;45583;-36
2023/09/17 14:00:36;;;;;;;;;6.50;6.25;;;;;25.46;52.36;100417.13;4940963;28;48349;-36
2023/09/17 14:03:10;;;;;;;;;6.75;5.75;;;;;25.45;52.77;100404.81;4958674;28;45334;-38
2023/09/17 14:05:36;;;;;;;;;8.50;6.75;;;;;25.47;52.97;100408.16;4958348;28;45319;-38
2023/09/17 14:08:01;;;;;;;;;8.25;6.75;;;;;25.50;52.56;100411.53;4958840;28;45577;-39
2023/09/17 14:10:27;;;;;;;;;5.75;5.75;;;;;25.50;53.06;100412.41;4957982;28;45442;-35
2023/09/17 14:12:52;;;;;;;;;5.50;5.50;;;;;25.50;52.75;100411.53;4958180;28;45247;-38
2023/09/17 14:15:18;;;;;;;;;8.00;6.00;;;;;25.50;52.43;100412.41;4958619;28;45486;-39
2023/09/17 14:17:44;;;;;;;;;6.00;5.25;;;;;25.50;52.92;100409.75;4958655;28;45445;-37
2023/09/17 14:20:10;;;;;;;;;8.00;7.25;;;;;25.50;52.81;100399.13;4958369;28;45318;-37
2023/09/17 14:22:35;;;;;;;;;8.50;7.50;;;;;25.51;52.71;100394.66;4958242;28;45401;-36
2023/09/17 14:25:03;;;;;;;;;6.25;5.25;;;;;25.51;52.56;100387.56;4958179;28;45404;-36
2023/09/17 14:27:29;;;;;;;;;8.50;6.00;;;;;25.51;52.70;100387.56;4958512;28;45474;-36
2023/09/17 14:29:54;;;;;;;;;6.50;6.00;;;;;25.52;52.55;100391.88;4957854;28;46827;-37
2023/09/17 14:32:22;;;;;;;;;8.00;5.00;;;;;25.53;52.75;100396.19;4958255;28;45334;-38
2023/09/17 14:34:49;;;;;;;;;7.50;5.50;;;;;25.54;52.58;100402.38;4958275;28;45382;-38
2023/09/17 14:37:15;;;;;;;;;8.00;6.50;;;;;25.54;52.72;100397.88;4958784;28;45444;-39
2023/09/17 14:39:40;;;;;;;;;6.00;5.00;;;;;25.56;52.93;100400.44;4957707;28;45948;-37
2023/09/17 14:42:05;;;;;;;;;7.75;6.50;;;;;25.56;52.65;100397.78;4957947;28;45785;-37
2023/09/17 14:44:32;;;;;;;;;7.00;7.00;;;;;25.55;52.58;100394.28;4958115;28;45429;-40
2023/09/17 14:46:59;;;;;;;;;6.00;5.50;;;;;25.56;52.80;100389.81;4940550;28;45251;-38
2023/09/17 14:49:25;;;;;;;;;6.75;6.00;;;;;25.56;52.59;100384.50;4957924;28;46297;-38
2023/09/17 14:51:51;;;;;;;;;7.00;4.25;;;;;25.56;53.00;100377.38;4957563;28;45692;-39
2023/09/17 14:54:16;;;;;;;;;4.75;4.75;;;;;25.56;52.33;100376.56;4958215;28;45390;-38
2023/09/17 14:56:41;;;;;;;;;6.25;6.25;;;;;25.55;52.52;100370.38;4957253;28;52722;-36
2023/09/17 14:59:06;;;;;;;;;4.75;4.75;;;;;25.55;52.58;100369.56;4957266;28;56175;-40
2023/09/17 15:01:32;;;;;;;;;7.00;6.00;;;;;25.54;52.66;100365.22;4957031;28;65825;-37
2023/09/17 15:03:57;;;;;;;;;7.50;5.00;;;;;25.55;52.44;100373.03;4957342;28;46090;-37
2023/09/17 15:06:22;;;;;;;;;7.00;5.75;;;;;25.55;52.57;100373.03;4940529;28;45452;-37
2023/09/17 15:08:48;;;;;;;;;5.75;4.50;;;;;25.56;52.72;100365.94;4957548;28;46016;-37
2023/09/17 15:11:13;;;;;;;;;6.75;5.50;;;;;25.56;52.66;100361.47;4957716;28;45395;-36
2023/09/17 15:13:38;;;;;;;;;6.75;5.25;;;;;25.55;52.78;100345.69;4957378;28;45410;-37
2023/09/17 15:16:04;;;;;;;;;4.75;4.75;;;;;25.56;52.40;100355.31;4957747;28;45516;-36
2023/09/17 15:18:29;;;;;;;;;5.00;4.00;;;;;25.56;52.27;100342.06;4957473;28;46139;-36
2023/09/17 15:20:55;;;;;;;;;7.75;7.00;;;;;25.57;52.23;100338.44;4939666;28;45418;-38
2023/09/17 15:23:20;;;;;;;;;4.25;4.25;;;;;25.58;52.55;100332.97;4957918;28;45472;-38
2023/09/17 15:25:45;;;;;;;;;6.25;6.00;;;;;25.60;52.54;100331.03;4957674;28;45429;-36
2023/09/17 15:28:10;;;;;;;;;5.25;5.25;;;;;25.61;52.34;100335.38;4956890;28;56921;-36
2023/09/17 15:30:36;;;;;;;;;9.75;6.00;;;;;25.61;52.33;100332.72;4957057;28;45402;-38
2023/09/17 15:33:01;;;;;;;;;6.25;5.50;;;;;25.62;52.20;100331.75;4956977;28;52622;-35
2023/09/17 15:35:28;;;;;;;;;6.00;5.00;;;;;25.63;52.58;100327.28;4972533;28;45573;-36
2023/09/17 15:37:56;;;;;;;;;5.50;5.50;;;;;25.62;52.55;100321.16;4938640;28;46878;-38
2023/09/17 15:40:21;;;;;;;;;6.00;6.00;;;;;25.63;52.33;100314.00;4957175;28;45842;-38
2023/09/17 15:42:46;;;;;;;;;7.00;5.00;;;;;25.65;52.40;100313.88;4957191;28;45433;-38
2023/09/17 15:45:12;;;;;;;;;9.50;5.25;;;;;25.65;52.29;100311.22;4957316;28;45578;-37
2023/09/17 15:47:40;;;;;;;;;6.50;5.50;;;;;25.65;52.16;100309.41;4956803;28;45380;-42
2023/09/17 15:50:07;;;;;;;;;6.75;5.25;;;;;25.67;52.96;100303.97;4957074;28;45809;-36
2023/09/17 15:52:32;;;;;;;;;7.00;5.00;;;;;25.67;52.79;100310.13;4957016;28;45383;-38
2023/09/17 15:54:57;;;;;;;;;10.25;7.00;;;;;25.67;52.63;100311.94;4956990;28;45549;-37
2023/09/17 15:57:23;;;;;;;;;6.75;6.00;;;;;25.67;52.56;100303.97;4956836;28;45312;-37
2023/09/17 15:59:48;;;;;;;;;8.25;5.25;;;;;25.69;52.64;100304.69;4939064;28;52508;-38
2023/09/17 16:02:13;;;;;;;;;7.25;5.00;;;;;25.69;52.75;100304.69;4957058;28;45778;-38
2023/09/17 16:04:39;;;;;;;;;7.75;5.50;;;;;25.69;52.86;100304.69;4956221;28;51452;-38
2023/09/17 16:07:05;;;;;;;;;5.50;5.50;;;;;25.69;52.83;100302.84;4956019;28;65024;-39
2023/09/17 16:09:30;;;;;;;;;9.50;5.50;;;;;25.70;52.79;100304.53;4956721;28;45476;-39
2023/09/17 16:11:56;;;;;;;;;7.00;7.00;;;;;25.70;53.00;100303.72;4956509;28;45273;-37
2023/09/17 16:14:21;;;;;;;;;5.50;5.50;;;;;25.71;52.50;100292.13;4956724;28;47121;-39
2023/09/17 16:16:47;;;;;;;;;5.00;4.50;;;;;25.70;52.99;100290.44;4956246;28;46305;-41
2023/09/17 16:19:12;;;;;;;;;7.25;6.25;;;;;25.71;52.95;100286.81;4956306;28;45477;-40
2023/09/17 16:21:38;;;;;;;;;5.00;4.00;;;;;25.70;52.48;100272.69;4956480;28;45522;-39
2023/09/17 16:24:03;;;;;;;;;8.25;5.50;;;;;25.71;52.74;100282.34;4956946;28;45545;-38
2023/09/17 16:26:29;;;;;;;;;8.50;7.75;;;;;25.71;52.92;100273.56;4956420;28;45307;-36
2023/09/17 16:28:54;;;;;;;;;7.00;7.00;;;;;25.72;52.74;100283.19;4955621;28;60368;-36
2023/09/17 16:31:19;;;;;;;;;7.25;5.25;;;;;25.72;52.76;100291.16;4956797;28;45372;-39
2023/09/17 16:33:45;;;;;;;;;6.25;5.00;;;;;25.71;52.93;100292.13;4956372;28;45633;-36
2023/09/17 16:36:13;;;;;;;;;7.00;5.50;;;;;25.71;52.76;100279.69;4938822;28;48322;-36
2023/09/17 16:38:38;;;;;;;;;6.25;5.25;;;;;25.71;52.93;100276.19;4955965;28;45371;-37
2023/09/17 16:41:03;;;;;;;;;7.75;7.75;;;;;25.72;53.03;100270.75;4955985;28;55282;-38
2023/09/17 16:43:29;;;;;;;;;6.00;5.25;;;;;25.72;52.52;100262.78;4955952;28;51158;-37
2023/09/17 16:45:55;;;;;;;;;4.50;4.50;;;;;25.70;52.83;100256.78;4955912;28;46333;-37
2023/09/17 16:48:20;;;;;;;;;7.50;5.00;;;;;25.72;52.71;100246.03;4956428;28;45290;-38
2023/09/17 16:50:45;;;;;;;;;5.00;5.00;;;;;25.71;53.23;100255.78;4959385;28;45346;-36
2023/09/17 16:53:11;;;;;;;;;7.00;6.25;;;;;25.72;52.73;100251.34;4959878;28;45230;-36
2023/09/17 16:55:37;;;;;;;;;5.50;5.00;;;;;25.72;52.80;100246.88;4959128;28;46388;-37
2023/09/17 16:58:04;;;;;;;;;7.50;6.00;;;;;25.71;52.95;100241.69;4959415;28;45772;-38
2023/09/17 17:00:29;;;;;;;;;8.75;5.25;;;;;25.71;53.14;100233.75;4959514;28;45385;-38
2023/09/17 17:02:54;;;;;;;;;6.25;5.50;;;;;25.72;52.79;100238.06;4959674;28;45571;-39
2023/09/17 17:05:20;;;;;;;;;6.50;5.00;;;;;25.71;52.74;100237.22;4959323;28;46694;-38
2023/09/17 17:07:45;;;;;;;;;8.25;6.25;;;;;25.71;52.37;100239.88;4959059;28;48573;-37
2023/09/17 17:10:10;;;;;;;;;7.00;6.00;;;;;25.71;52.81;100239.06;4959733;28;45837;-38
2023/09/17 17:12:36;;;;;;;;;10.00;7.25;;;;;25.70;52.60;100242.69;4959367;28;45525;-38
2023/09/17 17:15:02;;;;;;;;;8.25;8.25;;;;;25.70;53.05;100247.97;4958977;28;50883;-38
2023/09/17 17:17:28;;;;;;;;;7.00;7.00;;;;;25.68;52.70;100242.81;4959175;28;45793;-37
2023/09/17 17:19:54;;;;;;;;;7.25;6.25;;;;;25.70;52.79;100242.69;4959414;28;45377;-38
2023/09/17 17:22:19;;;;;;;;;6.75;6.25;;;;;25.68;53.09;100245.47;4959579;28;45636;-36
2023/09/17 17:24:45;;;;;;;;;12.00;6.50;;;;;25.68;52.74;100244.63;4958797;28;45419;-37
2023/09/17 17:27:10;;;;;;;;;11.75;7.00;;;;;25.68;52.90;100240.16;4959091;28;45315;-36
2023/09/17 17:29:35;;;;;;;;;7.75;6.00;;;;;25.68;52.68;100239.31;4959209;28;45243;-38
2023/09/17 17:32:00;;;;;;;;;7.50;5.50;;;;;25.67;53.17;100240.28;4959100;28;45322;-37
2023/09/17 17:34:26;;;;;;;;;8.00;5.00;;;;;25.67;52.75;100253.53;4941726;28;47042;-38
2023/09/17 17:36:52;;;;;;;;;8.00;6.00;;;;;25.67;53.11;100253.53;4958676;28;47232;-40
2023/09/17 17:39:17;;;;;;;;;8.00;5.00;;;;;25.69;52.95;100259.56;4958856;28;45335;-36
2023/09/17 17:41:42;;;;;;;;;7.33;6.00;;;;;25.68;52.99;100253.44;4957925;28;56526;-37
2023/09/17 17:44:08;;;;;;;;;7.25;6.50;;;;;25.69;53.15;100246.31;4958635;28;46718;-38
2023/09/17 17:46:33;;;;;;;;;7.50;7.25;;;;;25.70;53.01;100237.38;4958777;28;45366;-38
2023/09/17 17:48:58;;;;;;;;;8.00;5.75;;;;;25.69;53.03;100225.88;4941091;28;45350;-37
2023/09/17 17:51:23;;;;;;;;;7.50;6.00;;;;;25.70;52.66;100216.13;4958608;28;54990;-38
2023/09/17 17:53:49;;;;;;;;;8.00;6.25;;;;;25.71;53.06;100217.81;4958248;28;46286;-35
2023/09/17 17:56:14;;;;;;;;;8.25;6.75;;;;;25.70;52.79;100205.50;4958660;28;45353;-38
2023/09/17 17:58:39;;;;;;;;;9.75;7.50;;;;;25.70;53.29;100205.50;4958253;28;45287;-36
2023/09/17 18:01:05;;;;;;;;;7.50;7.50;;;;;25.69;53.16;100188.75;4958076;28;45274;-36
2023/09/17 18:03:30;;;;;;;;;8.00;6.50;;;;;25.70;52.92;100185.13;4958366;28;46858;-35
2023/09/17 18:05:58;;;;;;;;;5.75;5.75;;;;;25.70;52.86;100171.84;4958450;28;45247;-36
2023/09/17 18:08:24;;;;;;;;;8.00;8.00;;;;;25.70;53.00;100163.88;4958067;28;45676;-36
2023/09/17 18:10:50;;;;;;;;;8.50;6.50;;;;;25.70;53.50;100161.22;4958222;28;45277;-36
2023/09/17 18:13:15;;;;;;;;;8.00;8.00;;;;;25.69;53.13;100158.72;4957480;28;46722;-35
2023/09/17 18:15:41;;;;;;;;;6.50;5.50;;;;;25.70;53.26;100174.50;4972084;28;45502;-35
2023/09/17 18:18:07;;;;;;;;;7.00;6.00;;;;;25.70;53.47;100177.16;4957435;28;45592;-37
2023/09/17 18:20:36;;;;;;;;;11.50;8.50;;;;;25.71;53.31;100175.34;4957682;28;45422;-37
2023/09/17 18:23:02;;;;;;;;;5.75;5.50;;;;;25.70;53.26;100174.50;4957339;28;47554;-37
2023/09/17 18:25:30;;;;;;;;;7.50;7.50;;;;;25.72;53.06;100163.75;4940220;28;45470;-36
2023/09/17 18:27:55;;;;;;;;;8.25;7.00;;;;;25.73;53.69;100178.72;4955458;28;45382;-37
2023/09/17 18:30:21;;;;;;;;;9.25;7.25;;;;;25.74;53.28;100188.38;4940633;28;45320;-36
2023/09/17 18:32:46;;;;;;;;;9.00;8.75;;;;;25.73;53.75;100186.69;4939382;28;57397;-37
2023/09/17 18:35:11;;;;;;;;;11.00;7.50;;;;;25.72;53.59;100183.16;4957297;28;46492;-35
2023/09/17 18:37:36;;;;;;;;;8.75;8.00;;;;;25.73;53.48;100189.34;4957518;28;45481;-37
2023/09/17 18:40:02;;;;;;;;;10.00;7.75;;;;;25.72;53.55;100177.03;4957856;28;48115;-36
2023/09/17 18:42:29;;;;;;;;;10.75;8.25;;;;;25.72;53.42;100177.84;4958035;28;46666;-36
2023/09/17 18:44:55;;;;;;;;;10.75;8.00;;;;;25.72;53.52;100169.06;4956284;28;45729;-37
2023/09/17 18:47:20;;;;;;;;;8.00;8.00;;;;;25.71;53.67;100170.03;4958165;28;45410;-40
2023/09/17 18:49:47;;;;;;;;;9.00;8.00;;;;;25.73;53.42;100174.22;4957898;28;45586;-38
2023/09/17 18:52:13;;;;;;;;;10.25;9.75;;;;;25.74;53.71;100169.78;4972554;28;48498;-36
2023/09/17 18:54:39;;;;;;;;;8.00;6.00;;;;;25.76;53.72;100178.41;4957036;28;45278;-38
2023/09/17 18:57:04;;;;;;;;;8.50;8.00;;;;;25.81;53.43;100188.63;4957797;28;45300;-36
2023/09/17 18:59:29;;;;;;;;;6.25;6.25;;;;;25.83;53.22;100184.88;4956814;28;45189;-35
2023/09/17 19:01:55;;;;;;;;;9.00;7.50;;;;;25.86;53.10;100194.38;4957142;28;45290;-36
2023/09/17 19:04:20;;;;;;;;;9.00;8.50;;;;;25.87;53.40;100204.03;4956244;28;45228;-36
2023/09/17 19:06:46;;;;;;;;;8.50;8.25;;;;;25.89;53.72;100202.91;4956948;28;45268;-35
2023/09/17 19:09:11;;;;;;;;;9.50;7.25;;;;;25.92;53.74;100209.75;4956945;28;45231;-36
2023/09/17 19:11:38;;;;;;;;;11.00;9.50;;;;;25.94;53.38;100213.13;4955299;28;47331;-35
2023/09/17 19:14:03;;;;;;;;;13.50;8.25;;;;;25.96;53.34;100223.63;4956587;28;45375;-35
2023/09/17 19:16:29;;;;;;;;;9.75;8.25;;;;;25.95;53.40;100221.94;4957047;28;45318;-37
2023/09/17 19:18:56;;;;;;;;;8.50;8.50;;;;;25.98;53.61;100229.63;4956503;28;45485;-37
2023/09/17 19:21:22;;;;;;;;;11.50;9.00;;;;;25.99;53.42;100236.59;4956374;28;45378;-35
2023/09/17 19:23:48;;;;;;;;;10.25;9.00;;;;;26.00;53.05;100243.59;4956869;28;45257;-38
2023/09/17 19:26:15;;;;;;;;;10.75;9.50;;;;;26.00;53.13;100243.59;4957261;28;45200;-36
2023/09/17 19:28:41;;;;;;;;;9.75;8.50;;;;;25.98;52.81;100246.41;4957008;28;45536;-36
2023/09/17 19:31:07;;;;;;;;;8.50;8.50;;;;;25.97;53.40;100254.50;4957007;28;46121;-35
2023/09/17 19:33:32;;;;;;;;;9.00;7.75;;;;;25.96;53.50;100260.81;4957358;28;45732;-34
2023/09/17 19:36:00;;;;;;;;;11.00;8.00;;;;;25.94;53.15;100274.19;4956957;28;45410;-35
2023/09/17 19:38:26;;;;;;;;;9.25;7.25;;;;;25.93;53.55;100276.03;4957277;28;45365;-36
2023/09/17 19:40:51;;;;;;;;;11.25;10.50;;;;;25.91;53.75;100267.34;4956670;28;47174;-35
2023/09/17 19:43:17;;;;;;;;;7.75;5.00;;;;;25.90;53.72;100276.28;4956803;28;45420;-35
2023/09/17 19:45:50;;;;;;;;;10.00;8.50;;;;;25.88;53.87;100283.53;4956869;28;45224;-35
2023/09/17 19:48:16;;;;;;;;;7.75;7.75;;;;;25.88;53.91;100338.47;4957198;28;45842;-41
2023/09/17 19:50:42;;;;;;;;;9.25;8.75;;;;;25.87;54.61;100334.94;4956589;28;45358;-37
2023/09/17 19:53:07;;;;;;;;;8.00;7.50;;;;;25.85;54.72;100370.56;4956823;28;45335;-35
2023/09/17 19:55:33;;;;;;;;;6.25;6.25;;;;;25.82;54.38;100384.09;4957296;28;45888;-36
2023/09/17 19:57:58;;;;;;;;;7.67;5.00;;;;;25.80;54.24;100367.47;4956302;28;49489;-35
2023/09/17 20:00:23;;;;;;;;;9.00;6.00;;;;;25.78;54.03;100362.28;4956333;28;58662;-35
2023/09/17 20:02:49;;;;;;;;;5.00;5.00;;;;;25.76;54.45;100353.59;4956454;28;45240;-36
2023/09/17 20:05:14;;;;;;;;;3.00;3.00;;;;;25.74;54.26;100368.84;4956800;28;45687;-36
2023/09/17 20:07:39;;;;;;;;;2.75;2.75;;;;;25.73;53.90;100367.16;4956712;28;45648;-35